createdAt,value
2022-10-11T00:00:38.420Z,9.457145
2022-10-11T00:01:38.479Z,9.457235
2022-10-11T00:02:38.404Z,9.457238
2022-10-11T00:03:38.395Z,9.457269
2022-10-11T00:04:38.412Z,9.457232
2022-10-11T00:05:38.375Z,9.457236
2022-10-11T00:06:38.359Z,9.457232
2022-10-11T00:07:38.352Z,9.457205
2022-10-11T00:08:38.334Z,9.457193
2022-10-11T00:09:39.353Z,9.457319
2022-10-11T00:10:38.325Z,9.457262
2022-10-11T00:11:38.311Z,9.457096
2022-10-11T00:12:38.309Z,9.457159
2022-10-11T00:13:38.292Z,9.457277
2022-10-11T00:14:38.299Z,9.457314
2022-10-11T00:15:38.272Z,9.457299
2022-10-11T00:16:38.270Z,9.457396
2022-10-11T00:17:38.255Z,9.457256
2022-10-11T00:18:38.242Z,9.457220
2022-10-11T00:19:38.300Z,9.457353
2022-10-11T00:20:38.229Z,9.457296
2022-10-11T00:21:38.225Z,9.457373
2022-10-11T00:22:38.210Z,9.457230
2022-10-11T00:23:38.208Z,9.457047
2022-10-11T00:24:38.232Z,9.457145
2022-10-11T00:25:38.179Z,9.457185
2022-10-11T00:26:38.168Z,9.457078
2022-10-11T00:27:38.164Z,9.456977
2022-10-11T00:28:38.202Z,9.457007
2022-10-11T00:29:38.149Z,9.456985
2022-10-11T00:30:38.130Z,9.457133
2022-10-11T00:31:38.122Z,9.457047
2022-10-11T00:32:38.107Z,9.456982
2022-10-11T00:33:38.096Z,9.457047
2022-10-11T00:34:38.103Z,9.457132
2022-10-11T00:35:38.080Z,9.457217
2022-10-11T00:36:38.070Z,9.457003
2022-10-11T00:37:38.059Z,9.457156
2022-10-11T00:38:38.055Z,9.457154
2022-10-11T00:39:38.071Z,9.456964
2022-10-11T00:40:38.038Z,9.457050
2022-10-11T00:41:38.021Z,9.457065
2022-10-11T00:42:38.010Z,9.457211
2022-10-11T00:43:38.010Z,9.457108
2022-10-11T00:44:38.012Z,9.457044
2022-10-11T00:45:37.968Z,9.456972
2022-10-11T00:46:37.972Z,9.457086
2022-10-11T00:47:37.981Z,9.457022
2022-10-11T00:48:37.956Z,9.457085
2022-10-11T00:49:37.954Z,9.457085
2022-10-11T00:50:37.953Z,9.457080
2022-10-11T00:51:37.926Z,9.457187
2022-10-11T00:52:37.921Z,9.457161
2022-10-11T00:53:37.893Z,9.457094
2022-10-11T00:54:37.915Z,9.457088
2022-10-11T00:55:37.889Z,9.457029
2022-10-11T00:56:37.879Z,9.457143
2022-10-11T00:57:37.856Z,9.457106
2022-10-11T00:58:37.860Z,9.457084
2022-10-11T00:59:37.869Z,9.457221
2022-10-11T01:00:37.837Z,9.457183
2022-10-11T01:01:37.866Z,9.457314
2022-10-11T01:02:37.821Z,9.457344
2022-10-11T01:03:37.808Z,9.457356
2022-10-11T01:04:37.823Z,9.457294
2022-10-11T01:05:37.786Z,9.457032
2022-10-11T01:06:37.783Z,9.457294
2022-10-11T01:07:37.765Z,9.457307
2022-10-11T01:08:37.758Z,9.457248
2022-10-11T01:09:37.737Z,9.457183
2022-10-11T01:10:37.752Z,9.457046
2022-10-11T01:11:37.733Z,9.457419
2022-10-11T01:12:37.716Z,9.457305
2022-10-11T01:13:37.703Z,9.457244
2022-10-11T01:14:37.699Z,9.457261
2022-10-11T01:15:37.702Z,9.457179
2022-10-11T01:16:37.680Z,9.457150
2022-10-11T01:17:37.666Z,9.457187
2022-10-11T01:18:37.654Z,9.457314
2022-10-11T01:19:37.652Z,9.457172
2022-10-11T01:20:37.653Z,9.457191
2022-10-11T01:21:37.624Z,9.457332
2022-10-11T01:22:37.615Z,9.457200
2022-10-11T01:23:37.613Z,9.457065
2022-10-11T01:24:37.597Z,9.457051
2022-10-11T01:25:37.593Z,9.457192
2022-10-11T01:26:37.585Z,9.457268
2022-10-11T01:27:37.578Z,9.457245
2022-10-11T01:28:37.625Z,9.457288
2022-10-11T01:29:38.555Z,9.457177
2022-10-11T01:30:37.586Z,9.457019
2022-10-11T01:31:37.525Z,9.457123
2022-10-11T01:32:37.524Z,9.457140
2022-10-11T01:33:37.519Z,9.457116
2022-10-11T01:34:37.497Z,9.457073
2022-10-11T01:35:37.502Z,9.457214
2022-10-11T01:36:37.477Z,9.457181
2022-10-11T01:37:37.465Z,9.457076
2022-10-11T01:38:37.464Z,9.457175
2022-10-11T01:39:37.456Z,9.457151
2022-10-11T01:40:37.459Z,9.456807
2022-10-11T01:41:37.425Z,9.456865
2022-10-11T01:42:37.423Z,9.457170
2022-10-11T01:43:37.413Z,9.457187
2022-10-11T01:44:37.441Z,9.457010
2022-10-11T01:45:37.401Z,9.457258
2022-10-11T01:46:37.378Z,9.457397
2022-10-11T01:47:37.366Z,9.457333
2022-10-11T01:48:37.363Z,9.457512
2022-10-11T01:49:37.350Z,9.457288
2022-10-11T01:50:37.361Z,9.457577
2022-10-11T01:51:37.337Z,9.458184
2022-10-11T01:52:37.320Z,9.457729
2022-10-11T01:53:37.328Z,9.457814
2022-10-11T01:54:56.992Z,9.457897
2022-10-11T01:55:39.306Z,9.457780
2022-10-11T01:56:37.283Z,9.457612
2022-10-11T01:57:37.271Z,9.457273
2022-10-11T01:58:37.261Z,9.457178
2022-10-11T01:59:37.245Z,9.457159
2022-10-11T02:00:37.247Z,9.457248
2022-10-11T02:01:37.310Z,9.457401
2022-10-11T02:02:37.208Z,9.457444
2022-10-11T02:03:37.202Z,9.457245
2022-10-11T02:04:37.197Z,9.457391
2022-10-11T02:05:37.205Z,9.457685
2022-10-11T02:06:37.172Z,9.457519
2022-10-11T02:07:37.162Z,9.457560
2022-10-11T02:08:37.153Z,9.457432
2022-10-11T02:09:37.139Z,9.457370
2022-10-11T02:10:37.144Z,9.457221
2022-10-11T02:11:37.121Z,9.457261
2022-10-11T02:12:37.107Z,9.457211
2022-10-11T02:13:37.091Z,9.457190
2022-10-11T02:14:37.081Z,9.457198
2022-10-11T02:15:37.093Z,9.457071
2022-10-11T02:16:37.071Z,9.457203
2022-10-11T02:17:37.053Z,9.456707
2022-10-11T02:18:37.043Z,9.456400
2022-10-11T02:19:37.033Z,9.456286
2022-10-11T02:20:37.047Z,9.457322
2022-10-11T02:21:37.005Z,9.457154
2022-10-11T02:22:37.011Z,9.457209
2022-10-11T02:23:36.988Z,9.457235
2022-10-11T02:24:36.984Z,9.457273
2022-10-11T02:25:36.979Z,9.457223
2022-10-11T02:26:36.966Z,9.457209
2022-10-11T02:27:36.950Z,9.457207
2022-10-11T02:28:36.974Z,9.457135
2022-10-11T02:29:36.926Z,9.457107
2022-10-11T02:30:36.940Z,9.457190
2022-10-11T02:31:36.903Z,9.457165
2022-10-11T02:32:36.901Z,9.457134
2022-10-11T02:33:36.888Z,9.457298
2022-10-11T02:34:36.885Z,9.457232
2022-10-11T02:35:36.879Z,9.457227
2022-10-11T02:36:36.851Z,9.457201
2022-10-11T02:37:36.833Z,9.457250
2022-10-11T02:38:36.839Z,9.457308
2022-10-11T02:39:36.817Z,9.457318
2022-10-11T02:40:36.939Z,9.457261
2022-10-11T02:41:36.788Z,9.457223
2022-10-11T02:42:36.781Z,9.457269
2022-10-11T02:43:36.765Z,9.457310
2022-10-11T02:44:36.763Z,9.457222
2022-10-11T02:45:36.763Z,9.457184
2022-10-11T02:46:36.746Z,9.457204
2022-10-11T02:47:36.732Z,9.457183
2022-10-11T02:48:36.709Z,9.457227
2022-10-11T02:49:36.697Z,9.457254
2022-10-11T02:50:36.705Z,9.457220
2022-10-11T02:51:36.683Z,9.457247
2022-10-11T02:52:36.675Z,9.457215
2022-10-11T02:53:36.655Z,9.457230
2022-10-11T02:54:36.649Z,9.457096
2022-10-11T02:55:36.652Z,9.457084
2022-10-11T02:56:36.628Z,9.457122
2022-10-11T02:57:36.606Z,9.457277
2022-10-11T02:58:36.605Z,9.457333
2022-10-11T02:59:36.599Z,9.457265
2022-10-11T03:00:36.602Z,9.457339
2022-10-11T03:01:36.636Z,9.457282
2022-10-11T03:02:36.564Z,9.457261
2022-10-11T03:03:36.548Z,9.457299
2022-10-11T03:04:36.539Z,9.457261
2022-10-11T03:05:36.533Z,9.457304
2022-10-11T03:06:36.516Z,9.457322
2022-10-11T03:07:36.510Z,9.457269
2022-10-11T03:08:36.492Z,9.457226
2022-10-11T03:09:36.490Z,9.457284
2022-10-11T03:10:36.486Z,9.457244
2022-10-11T03:12:02.867Z,9.457143
2022-10-11T03:12:36.449Z,9.457187
2022-10-11T03:13:37.438Z,9.457186
2022-10-11T03:14:36.447Z,9.457291
2022-10-11T03:15:36.426Z,9.457429
2022-10-11T03:16:36.408Z,9.457377
2022-10-11T03:17:37.335Z,9.457305
2022-10-11T03:18:37.381Z,9.457210
2022-10-11T03:19:36.367Z,9.457113
2022-10-11T03:20:36.385Z,9.457259
2022-10-11T03:21:36.371Z,9.457227
2022-10-11T03:22:36.331Z,9.457386
2022-10-11T03:23:36.330Z,9.457337
2022-10-11T03:24:36.320Z,9.457200
2022-10-11T03:25:36.326Z,9.457253
2022-10-11T03:26:36.287Z,9.457142
2022-10-11T03:27:36.285Z,9.457092
2022-10-11T03:28:36.386Z,9.457151
2022-10-11T03:29:36.258Z,9.457179
2022-10-11T03:30:36.264Z,9.457290
2022-10-11T03:31:36.248Z,9.457294
2022-10-11T03:32:36.228Z,9.457356
2022-10-11T03:33:36.217Z,9.457200
2022-10-11T03:34:36.192Z,9.457294
2022-10-11T03:35:36.202Z,9.457251
2022-10-11T03:36:36.180Z,9.457263
2022-10-11T03:37:36.169Z,9.457239
2022-10-11T03:38:36.157Z,9.457221
2022-10-11T03:39:36.148Z,9.457273
2022-10-11T03:40:36.157Z,9.457273
2022-10-11T03:41:36.122Z,9.457278
2022-10-11T03:42:36.107Z,9.457157
2022-10-11T03:43:36.097Z,9.457261
2022-10-11T03:44:36.091Z,9.457169
2022-10-11T03:45:36.113Z,9.457167
2022-10-11T03:46:36.075Z,9.457285
2022-10-11T03:47:36.057Z,9.457387
2022-10-11T03:48:36.047Z,9.457143
2022-10-11T03:49:38.784Z,9.457217
2022-10-11T03:50:38.044Z,9.457309
2022-10-11T03:51:36.014Z,9.457176
2022-10-11T03:52:35.997Z,9.457135
2022-10-11T03:53:35.991Z,9.457239
2022-10-11T03:54:35.981Z,9.457193
2022-10-11T03:55:35.985Z,9.457216
2022-10-11T03:56:35.961Z,9.457163
2022-10-11T03:57:35.941Z,9.457071
2022-10-11T03:58:35.926Z,9.456873
2022-10-11T03:59:35.920Z,9.457039
2022-10-11T04:00:35.939Z,9.456931
2022-10-11T04:01:35.987Z,9.457011
2022-10-11T04:02:39.164Z,9.456643
2022-10-11T04:03:35.885Z,9.456974
2022-10-11T04:04:35.872Z,9.457392
2022-10-11T04:05:35.875Z,9.457307
2022-10-11T04:06:35.832Z,9.457108
2022-10-11T04:07:35.832Z,9.456965
2022-10-11T04:08:35.820Z,9.457207
2022-10-11T04:09:35.815Z,9.457294
2022-10-11T04:10:35.801Z,9.457192
2022-10-11T04:11:35.812Z,9.457187
2022-10-11T04:12:35.782Z,9.456904
2022-10-11T04:13:35.765Z,9.456769
2022-10-11T04:14:35.749Z,9.456646
2022-10-11T04:15:35.745Z,9.456353
2022-10-11T04:16:35.751Z,9.456733
2022-10-11T04:17:35.721Z,9.457067
2022-10-11T04:18:35.699Z,9.457066
2022-10-11T04:19:35.699Z,9.457245
2022-10-11T04:20:35.685Z,9.457294
2022-10-11T04:21:35.694Z,9.457344
2022-10-11T04:22:35.663Z,9.457282
2022-10-11T04:23:35.656Z,9.457254
2022-10-11T04:24:35.635Z,9.457324
2022-10-11T04:25:35.631Z,9.457384
2022-10-11T04:26:35.637Z,9.457293
2022-10-11T04:27:35.603Z,9.457258
2022-10-11T04:28:35.643Z,9.457228
2022-10-11T04:29:35.586Z,9.457003
2022-10-11T04:30:35.567Z,9.457194
2022-10-11T04:31:35.579Z,9.457026
2022-10-11T04:32:35.559Z,9.456768
2022-10-11T04:33:35.538Z,9.456905
2022-10-11T04:34:35.532Z,9.457108
2022-10-11T04:35:35.515Z,9.457302
2022-10-11T04:36:35.553Z,9.457301
2022-10-11T04:37:35.509Z,9.457267
2022-10-11T04:38:35.479Z,9.457437
2022-10-11T04:39:35.509Z,9.457211
2022-10-11T04:40:35.509Z,9.457276
2022-10-11T04:41:35.454Z,9.457411
2022-10-11T04:42:35.448Z,9.457394
2022-10-11T04:43:35.433Z,9.457452
2022-10-11T04:44:35.427Z,9.457226
2022-10-11T04:45:35.441Z,9.457290
2022-10-11T04:46:35.414Z,9.457205
2022-10-11T04:47:35.397Z,9.457336
2022-10-11T04:48:35.386Z,9.457344
2022-10-11T04:49:35.372Z,9.457212
2022-10-11T04:50:35.378Z,9.457253
2022-10-11T04:51:35.356Z,9.457229
2022-10-11T04:52:35.352Z,9.457158
2022-10-11T04:53:35.334Z,9.457205
2022-10-11T04:54:35.333Z,9.457234
2022-10-11T04:55:35.342Z,9.457180
2022-10-11T04:56:35.305Z,9.457142
2022-10-11T04:57:35.303Z,9.457228
2022-10-11T04:58:35.293Z,9.457269
2022-10-11T04:59:35.271Z,9.457285
2022-10-11T05:00:35.287Z,9.457278
2022-10-11T05:01:35.341Z,9.457220
2022-10-11T05:02:35.239Z,9.457296
2022-10-11T05:03:35.227Z,9.457308
2022-10-11T05:04:35.223Z,9.457287
2022-10-11T05:05:35.233Z,9.457320
2022-10-11T05:06:35.210Z,9.457257
2022-10-11T05:07:35.208Z,9.457225
2022-10-11T05:08:35.193Z,9.457241
2022-10-11T05:09:35.167Z,9.457189
2022-10-11T05:10:35.189Z,9.457359
2022-10-11T05:11:35.154Z,9.457295
2022-10-11T05:12:35.148Z,9.457232
2022-10-11T05:13:35.150Z,9.457221
2022-10-11T05:14:35.157Z,9.457224
2022-10-11T05:15:35.130Z,9.457278
2022-10-11T05:16:35.097Z,9.457314
2022-10-11T05:17:35.107Z,9.457347
2022-10-11T05:18:35.082Z,9.457263
2022-10-11T05:19:35.108Z,9.457317
2022-10-11T05:20:35.076Z,9.457363
2022-10-11T05:21:35.049Z,9.457473
2022-10-11T05:22:35.036Z,9.457493
2022-10-11T05:23:35.027Z,9.457676
2022-10-11T05:24:35.027Z,9.457445
2022-10-11T05:25:35.022Z,9.457271
2022-10-11T05:26:34.998Z,9.457268
2022-10-11T05:27:34.989Z,9.457217
2022-10-11T05:28:35.068Z,9.457208
2022-10-11T05:29:34.963Z,9.457317
2022-10-11T05:30:34.968Z,9.457304
2022-10-11T05:31:34.954Z,9.457368
2022-10-11T05:32:34.928Z,9.457323
2022-10-11T05:33:34.922Z,9.457274
2022-10-11T05:34:34.926Z,9.457174
2022-10-11T05:35:34.921Z,9.457124
2022-10-11T05:36:34.883Z,9.457188
2022-10-11T05:37:34.880Z,9.457235
2022-10-11T05:38:34.859Z,9.457271
2022-10-11T05:39:34.864Z,9.457360
2022-10-11T05:40:34.867Z,9.457382
2022-10-11T05:41:34.838Z,9.457276
2022-10-11T05:42:34.831Z,9.457156
2022-10-11T05:43:34.809Z,9.457202
2022-10-11T05:44:34.807Z,9.457252
2022-10-11T05:45:34.795Z,9.457312
2022-10-11T05:46:34.798Z,9.457163
2022-10-11T05:47:34.767Z,9.457150
2022-10-11T05:48:34.758Z,9.457162
2022-10-11T05:49:34.746Z,9.457163
2022-10-11T05:50:34.725Z,9.457182
2022-10-11T05:51:34.742Z,9.457128
2022-10-11T05:52:34.709Z,9.457151
2022-10-11T05:53:34.704Z,9.457159
2022-10-11T05:54:34.695Z,9.457220
2022-10-11T05:55:34.683Z,9.457182
2022-10-11T05:56:34.682Z,9.457305
2022-10-11T05:57:34.659Z,9.457272
2022-10-11T05:58:34.645Z,9.457216
2022-10-11T05:59:34.635Z,9.457443
2022-10-11T06:00:34.621Z,9.457201
2022-10-11T06:01:34.773Z,9.457217
2022-10-11T06:02:34.604Z,9.457274
2022-10-11T06:03:34.589Z,9.457223
2022-10-11T06:04:34.579Z,9.457327
2022-10-11T06:05:34.567Z,9.457288
2022-10-11T06:06:34.567Z,9.457305
2022-10-11T06:07:35.546Z,9.457225
2022-10-11T06:08:34.529Z,9.457243
2022-10-11T06:09:34.523Z,9.457380
2022-10-11T06:10:34.512Z,9.457299
2022-10-11T06:11:34.523Z,9.457375
2022-10-11T06:12:34.499Z,9.457358
2022-10-11T06:13:34.482Z,9.457161
2022-10-11T06:14:34.468Z,9.457289
2022-10-11T06:15:34.463Z,9.457220
2022-10-11T06:16:34.470Z,9.457101
2022-10-11T06:17:34.438Z,9.457284
2022-10-11T06:18:34.421Z,9.457332
2022-10-11T06:19:34.418Z,9.457295
2022-10-11T06:20:34.402Z,9.457261
2022-10-11T06:21:34.413Z,9.457294
2022-10-11T06:22:34.378Z,9.457176
2022-10-11T06:23:34.365Z,9.457240
2022-10-11T06:24:34.359Z,9.457352
2022-10-11T06:25:34.338Z,9.457327
2022-10-11T06:26:34.416Z,9.457294
2022-10-11T06:27:34.319Z,9.457368
2022-10-11T06:28:34.377Z,9.457272
2022-10-11T06:29:34.297Z,9.457205
2022-10-11T06:30:34.299Z,9.457227
2022-10-11T06:31:34.306Z,9.457274
2022-10-11T06:32:34.260Z,9.457261
2022-10-11T06:33:34.247Z,9.457396
2022-10-11T06:34:34.241Z,9.457250
2022-10-11T06:35:34.235Z,9.457410
2022-10-11T06:36:34.240Z,9.457414
2022-10-11T06:37:34.214Z,9.457323
2022-10-11T06:38:34.201Z,9.457222
2022-10-11T06:39:34.192Z,9.457289
2022-10-11T06:40:34.180Z,9.457274
2022-10-11T06:41:34.173Z,9.457337
2022-10-11T06:42:34.146Z,9.457324
2022-10-11T06:43:34.144Z,9.457116
2022-10-11T06:44:34.137Z,9.457188
2022-10-11T06:45:34.116Z,9.457247
2022-10-11T06:46:34.127Z,9.457246
2022-10-11T06:47:34.097Z,9.457266
2022-10-11T06:48:34.098Z,9.457216
2022-10-11T06:49:34.086Z,9.457142
2022-10-11T06:50:57.987Z,9.457279
2022-10-11T06:51:36.089Z,9.457274
2022-10-11T06:52:34.054Z,9.457259
2022-10-11T06:53:34.027Z,9.457159
2022-10-11T06:54:34.024Z,9.457139
2022-10-11T06:55:34.012Z,9.457144
2022-10-11T06:56:34.024Z,9.457100
2022-10-11T06:57:33.996Z,9.457092
2022-10-11T06:58:33.988Z,9.457364
2022-10-11T06:59:33.980Z,9.457248
2022-10-11T07:00:33.963Z,9.457253
2022-10-11T07:01:34.049Z,9.457335
2022-10-11T07:02:33.948Z,9.457123
2022-10-11T07:03:33.934Z,9.457170
2022-10-11T07:04:34.057Z,9.457180
2022-10-11T07:05:33.912Z,9.457210
2022-10-11T07:06:33.921Z,9.457160
2022-10-11T07:07:33.890Z,9.457193
2022-10-11T07:08:33.883Z,9.457328
2022-10-11T07:09:33.885Z,9.457316
2022-10-11T07:10:33.859Z,9.457314
2022-10-11T07:11:33.883Z,9.457278
2022-10-11T07:12:33.839Z,9.457198
2022-10-11T07:13:33.828Z,9.457266
2022-10-11T07:14:33.817Z,9.457244
2022-10-11T07:15:33.822Z,9.457267
2022-10-11T07:16:33.830Z,9.457435
2022-10-11T07:17:33.785Z,9.457556
2022-10-11T07:18:33.774Z,9.457500
2022-10-11T07:19:33.768Z,9.457361
2022-10-11T07:20:33.751Z,9.457377
2022-10-11T07:21:33.765Z,9.457350
2022-10-11T07:22:33.735Z,9.457320
2022-10-11T07:23:33.740Z,9.457323
2022-10-11T07:24:33.716Z,9.457307
2022-10-11T07:25:33.705Z,9.457377
2022-10-11T07:26:38.277Z,9.457315
2022-10-11T07:27:35.668Z,9.457297
2022-10-11T07:28:33.731Z,9.457249
2022-10-11T07:29:33.648Z,9.457312
2022-10-11T07:30:33.639Z,9.457318
2022-10-11T07:31:33.650Z,9.457201
2022-10-11T07:32:33.638Z,9.457207
2022-10-11T07:33:33.613Z,9.457342
2022-10-11T07:34:33.628Z,9.457216
2022-10-11T07:35:33.591Z,9.457299
2022-10-11T07:36:33.600Z,9.457230
2022-10-11T07:37:33.584Z,9.457111
2022-10-11T07:38:33.580Z,9.457201
2022-10-11T07:39:33.574Z,9.457281
2022-10-11T07:40:33.539Z,9.457169
2022-10-11T07:41:33.550Z,9.457109
2022-10-11T07:42:33.530Z,9.457276
2022-10-11T07:43:33.534Z,9.457185
2022-10-11T07:44:33.514Z,9.457098
2022-10-11T07:45:33.512Z,9.457174
2022-10-11T07:46:33.506Z,9.457258
2022-10-11T07:47:33.486Z,9.457195
2022-10-11T07:48:33.462Z,9.457218
2022-10-11T07:49:33.461Z,9.457182
2022-10-11T07:50:33.456Z,9.457178
2022-10-11T07:51:33.474Z,9.457191
2022-10-11T07:52:33.438Z,9.457135
2022-10-11T07:53:33.425Z,9.457192
2022-10-11T07:54:33.417Z,9.457298
2022-10-11T07:55:33.406Z,9.457289
2022-10-11T07:56:33.448Z,9.457216
2022-10-11T07:57:33.391Z,9.457330
2022-10-11T07:58:33.367Z,9.457358
2022-10-11T07:59:34.366Z,9.457278
2022-10-11T08:00:33.359Z,9.457270
2022-10-11T08:01:33.523Z,9.457188
2022-10-11T08:02:33.341Z,9.457245
2022-10-11T08:03:33.330Z,9.457282
2022-10-11T08:04:33.309Z,9.457287
2022-10-11T08:05:33.305Z,9.457057
2022-10-11T08:06:33.303Z,9.457166
2022-10-11T08:07:33.346Z,9.457207
2022-10-11T08:08:33.269Z,9.457248
2022-10-11T08:09:33.273Z,9.457339
2022-10-11T08:10:33.269Z,9.457249
2022-10-11T08:11:33.260Z,9.457281
2022-10-11T08:12:33.239Z,9.457268
2022-10-11T08:13:33.233Z,9.457310
2022-10-11T08:14:33.219Z,9.457179
2022-10-11T08:15:33.215Z,9.457149
2022-10-11T08:16:33.238Z,9.457125
2022-10-11T08:17:33.181Z,9.457077
2022-10-11T08:18:34.184Z,9.457311
2022-10-11T08:19:33.181Z,9.457201
2022-10-11T08:20:33.167Z,9.457152
2022-10-11T08:21:33.182Z,9.457146
2022-10-11T08:22:33.143Z,9.457100
2022-10-11T08:23:33.127Z,9.457283
2022-10-11T08:24:38.024Z,9.457132
2022-10-11T08:25:33.112Z,9.457159
2022-10-11T08:26:33.119Z,9.457078
2022-10-11T08:27:33.091Z,9.457293
2022-10-11T08:28:33.132Z,9.457283
2022-10-11T08:29:33.077Z,9.457210
2022-10-11T08:30:33.051Z,9.457381
2022-10-11T08:31:33.063Z,9.457156
2022-10-11T08:32:33.029Z,9.457154
2022-10-11T08:33:33.043Z,9.457094
2022-10-11T08:34:33.016Z,9.457012
2022-10-11T08:35:33.005Z,9.457163
2022-10-11T08:36:33.007Z,9.457129
2022-10-11T08:37:32.989Z,9.457209
2022-10-11T08:38:32.978Z,9.457262
2022-10-11T08:39:32.962Z,9.457292
2022-10-11T08:40:35.394Z,9.457234
2022-10-11T08:41:33.965Z,9.457256
2022-10-11T08:42:32.939Z,9.457279
2022-10-11T08:43:33.631Z,9.457297
2022-10-11T08:44:51.856Z,9.457269
2022-10-11T08:45:33.912Z,9.457256
2022-10-11T08:46:32.917Z,9.457331
2022-10-11T08:47:32.900Z,9.457268
2022-10-11T08:48:32.891Z,9.457215
2022-10-11T08:49:32.878Z,9.457211
2022-10-11T08:50:32.871Z,9.457298
2022-10-11T08:51:33.099Z,9.457163
2022-10-11T08:52:32.836Z,9.457217
2022-10-11T08:53:32.828Z,9.457233
2022-10-11T08:54:32.860Z,9.457298
2022-10-11T08:55:32.858Z,9.457175
2022-10-11T08:56:32.814Z,9.457243
2022-10-11T08:57:32.795Z,9.457340
2022-10-11T08:58:32.794Z,9.457318
2022-10-11T08:59:32.781Z,9.457219
2022-10-11T09:00:32.937Z,9.457234
2022-10-11T09:01:32.836Z,9.457273
2022-10-11T09:02:55.601Z,9.457259
2022-10-11T09:03:34.727Z,9.457275
2022-10-11T09:04:32.708Z,9.457230
2022-10-11T09:05:32.706Z,9.457271
2022-10-11T09:06:32.709Z,9.457265
2022-10-11T09:07:32.692Z,9.457314
2022-10-11T09:08:32.698Z,9.457332
2022-10-11T09:09:32.670Z,9.457232
2022-10-11T09:10:32.664Z,9.457220
2022-10-11T09:11:35.408Z,9.457215
2022-10-11T09:13:04.643Z,9.457232
2022-10-11T09:13:32.629Z,9.457300
2022-10-11T09:14:32.623Z,9.457207
2022-10-11T09:15:32.607Z,9.457168
2022-10-11T09:16:32.605Z,9.457045
2022-10-11T09:17:32.586Z,9.457134
2022-10-11T09:18:32.581Z,9.457077
2022-10-11T09:19:32.571Z,9.457116
2022-10-11T09:20:32.570Z,9.457221
2022-10-11T09:21:32.574Z,9.457295
2022-10-11T09:22:32.545Z,9.457243
2022-10-11T09:23:32.531Z,9.457203
2022-10-11T09:24:32.525Z,9.457254
2022-10-11T09:25:32.516Z,9.457267
2022-10-11T09:26:32.514Z,9.457235
2022-10-11T09:27:57.786Z,9.457177
2022-10-11T09:28:34.511Z,9.457271
2022-10-11T09:29:32.474Z,9.457277
2022-10-11T09:30:32.469Z,9.457188
2022-10-11T09:31:32.464Z,9.457227
2022-10-11T09:32:32.432Z,9.457159
2022-10-11T09:33:32.433Z,9.457156
2022-10-11T09:34:32.442Z,9.457109
2022-10-11T09:35:32.409Z,9.457128
2022-10-11T09:36:32.439Z,9.457125
2022-10-11T09:37:32.392Z,9.457100
2022-10-11T09:38:32.402Z,9.457048
2022-10-11T09:39:32.381Z,9.457120
2022-10-11T09:40:32.356Z,9.457089
2022-10-11T09:41:32.377Z,9.457052
2022-10-11T09:42:32.352Z,9.457115
2022-10-11T09:43:32.338Z,9.457220
2022-10-11T09:44:32.318Z,9.457223
2022-10-11T09:45:32.313Z,9.457280
2022-10-11T09:46:32.320Z,9.457398
2022-10-11T09:47:32.293Z,9.457332
2022-10-11T09:48:32.284Z,9.457169
2022-10-11T09:49:32.272Z,9.457110
2022-10-11T09:50:32.268Z,9.457164
2022-10-11T09:51:32.279Z,9.457076
2022-10-11T09:52:32.249Z,9.457262
2022-10-11T09:53:32.248Z,9.457237
2022-10-11T09:54:32.242Z,9.457223
2022-10-11T09:55:32.230Z,9.457253
2022-10-11T09:56:32.229Z,9.457325
2022-10-11T09:57:32.208Z,9.457211
2022-10-11T09:58:32.192Z,9.457244
2022-10-11T09:59:32.192Z,9.457141
2022-10-11T10:00:32.177Z,9.457219
2022-10-11T10:01:32.244Z,9.457230
2022-10-11T10:02:32.171Z,9.457309
2022-10-11T10:03:32.153Z,9.457249
2022-10-11T10:04:32.139Z,9.457253
2022-10-11T10:05:32.133Z,9.457294
2022-10-11T10:06:32.146Z,9.457252
2022-10-11T10:07:32.115Z,9.457165
2022-10-11T10:08:32.106Z,9.457192
2022-10-11T10:09:32.088Z,9.457228
2022-10-11T10:10:32.083Z,9.457205
2022-10-11T10:11:32.095Z,9.457275
2022-10-11T10:12:32.046Z,9.457220
2022-10-11T10:13:32.054Z,9.457246
2022-10-11T10:14:32.042Z,9.457291
2022-10-11T10:15:32.030Z,9.457290
2022-10-11T10:16:32.036Z,9.457250
2022-10-11T10:17:32.005Z,9.457200
2022-10-11T10:18:32.006Z,9.457314
2022-10-11T10:19:31.995Z,9.457267
2022-10-11T10:20:31.965Z,9.457310
2022-10-11T10:21:32.011Z,9.457265
2022-10-11T10:22:31.959Z,9.457349
2022-10-11T10:23:31.955Z,9.457178
2022-10-11T10:24:31.933Z,9.457223
2022-10-11T10:25:31.940Z,9.457206
2022-10-11T10:26:31.931Z,9.457161
2022-10-11T10:27:31.912Z,9.457231
2022-10-11T10:28:31.921Z,9.457291
2022-10-11T10:29:31.887Z,9.457294
2022-10-11T10:30:35.526Z,9.457223
2022-10-11T10:31:44.453Z,9.457167
2022-10-11T10:32:33.867Z,9.457221
2022-10-11T10:33:31.850Z,9.457213
2022-10-11T10:34:31.837Z,9.457309
2022-10-11T10:35:31.826Z,9.457250
2022-10-11T10:36:31.836Z,9.457238
2022-10-11T10:37:31.814Z,9.457160
2022-10-11T10:38:31.804Z,9.457172
2022-10-11T10:39:31.788Z,9.457181
2022-10-11T10:40:31.773Z,9.457194
2022-10-11T10:41:31.790Z,9.457161
2022-10-11T10:42:31.764Z,9.457172
2022-10-11T10:43:31.754Z,9.457137
2022-10-11T10:44:32.738Z,9.457221
2022-10-11T10:45:31.743Z,9.457193
2022-10-11T10:46:31.761Z,9.457173
2022-10-11T10:47:31.711Z,9.457210
2022-10-11T10:48:46.963Z,9.457232
2022-10-11T10:49:52.989Z,9.457152
2022-10-11T10:50:33.693Z,9.457187
2022-10-11T10:51:31.691Z,9.457254
2022-10-11T10:52:31.654Z,9.457189
2022-10-11T10:53:31.666Z,9.457269
2022-10-11T10:54:31.639Z,9.457229
2022-10-11T10:55:31.634Z,9.457274
2022-10-11T10:56:31.642Z,9.457239
2022-10-11T10:57:31.613Z,9.457272
2022-10-11T10:58:31.602Z,9.457196
2022-10-11T10:59:31.622Z,9.457226
2022-10-11T11:00:31.583Z,9.457314
2022-10-11T11:01:31.689Z,9.457164
2022-10-11T11:02:46.978Z,9.457268
2022-10-11T11:03:33.563Z,9.457297
2022-10-11T11:04:31.559Z,9.457239
2022-10-11T11:05:31.549Z,9.457151
2022-10-11T11:06:34.204Z,9.457207
2022-10-11T11:07:33.529Z,9.457288
2022-10-11T11:08:31.512Z,9.457221
2022-10-11T11:09:31.502Z,9.457238
2022-10-11T11:10:31.499Z,9.457212
2022-10-11T11:11:31.503Z,9.457202
2022-10-11T11:12:31.476Z,9.457235
2022-10-11T11:13:31.466Z,9.457226
2022-10-11T11:14:31.487Z,9.457216
2022-10-11T11:15:34.264Z,9.457253
2022-10-11T11:16:32.447Z,9.457286
2022-10-11T11:17:31.421Z,9.457212
2022-10-11T11:18:31.411Z,9.457241
2022-10-11T11:19:31.422Z,9.457257
2022-10-11T11:20:31.392Z,9.457259
2022-10-11T11:21:31.401Z,9.457297
2022-10-11T11:22:32.876Z,9.457310
2022-10-11T11:23:32.361Z,9.457221
2022-10-11T11:24:31.370Z,9.457297
2022-10-11T11:25:31.341Z,9.457254
2022-10-11T11:26:31.354Z,9.457191
2022-10-11T11:27:31.319Z,9.457204
2022-10-11T11:28:31.396Z,9.457361
2022-10-11T11:29:31.310Z,9.457221
2022-10-11T11:30:31.288Z,9.457324
2022-10-11T11:31:31.298Z,9.457295
2022-10-11T11:32:31.263Z,9.457186
2022-10-11T11:33:31.266Z,9.457254
2022-10-11T11:34:31.248Z,9.457230
2022-10-11T11:35:31.237Z,9.457270
2022-10-11T11:36:31.258Z,9.457335
2022-10-11T11:37:31.232Z,9.457337
2022-10-11T11:38:31.211Z,9.457205
2022-10-11T11:39:31.202Z,9.457197
2022-10-11T11:40:31.190Z,9.457198
2022-10-11T11:41:31.197Z,9.457208
2022-10-11T11:42:31.176Z,9.457286
2022-10-11T11:43:31.167Z,9.457272
2022-10-11T11:44:31.152Z,9.457269